sensor_id;sensor_type;location;lat;lon;timestamp;P1;durP1;ratioP1;P2;durP2;ratioP2
27275;SDS011;14772;47.398;8.080;2022-10-16T00:01:17;16.43;;;5.00;;
27275;SDS011;14772;47.398;8.080;2022-10-16T00:06:17;17.67;;;5.10;;
27275;SDS011;14772;47.398;8.080;2022-10-16T00:11:21;23.23;;;5.43;;
27275;SDS011;14772;47.398;8.080;2022-10-16T00:16:42;18.77;;;6.20;;
27275;SDS011;14772;47.398;8.080;2022-10-16T00:21:40;17.77;;;6.57;;
27275;SDS011;14772;47.398;8.080;2022-10-16T00:38:25;15.73;;;5.20;;
27275;SDS011;14772;47.398;8.080;2022-10-16T00:49:22;14.03;;;5.00;;
27275;SDS011;14772;47.398;8.080;2022-10-16T00:54:39;13.13;;;4.30;;
27275;SDS011;14772;47.398;8.080;2022-10-16T00:59:37;12.13;;;4.47;;
27275;SDS011;14772;47.398;8.080;2022-10-16T01:04:37;17.90;;;4.73;;
27275;SDS011;14772;47.398;8.080;2022-10-16T01:09:40;17.73;;;4.83;;
27275;SDS011;14772;47.398;8.080;2022-10-16T01:14:43;18.07;;;4.90;;
27275;SDS011;14772;47.398;8.080;2022-10-16T01:20:00;16.30;;;4.57;;
27275;SDS011;14772;47.398;8.080;2022-10-16T01:25:22;15.17;;;4.70;;
27275;SDS011;14772;47.398;8.080;2022-10-16T01:47:36;23.93;;;5.20;;
27275;SDS011;14772;47.398;8.080;2022-10-16T01:52:55;15.20;;;4.90;;
27275;SDS011;14772;47.398;8.080;2022-10-16T01:57:55;16.00;;;4.80;;
27275;SDS011;14772;47.398;8.080;2022-10-16T02:02:59;16.83;;;4.90;;
27275;SDS011;14772;47.398;8.080;2022-10-16T02:08:02;18.07;;;4.73;;
27275;SDS011;14772;47.398;8.080;2022-10-16T02:13:05;13.43;;;4.70;;
27275;SDS011;14772;47.398;8.080;2022-10-16T02:18:05;19.50;;;5.00;;
27275;SDS011;14772;47.398;8.080;2022-10-16T02:23:05;14.67;;;4.30;;
27275;SDS011;14772;47.398;8.080;2022-10-16T02:28:10;14.10;;;4.70;;
27275;SDS011;14772;47.398;8.080;2022-10-16T02:33:11;18.97;;;5.03;;
27275;SDS011;14772;47.398;8.080;2022-10-16T02:38:13;15.97;;;4.67;;
27275;SDS011;14772;47.398;8.080;2022-10-16T02:43:14;15.57;;;4.80;;
27275;SDS011;14772;47.398;8.080;2022-10-16T02:48:35;17.53;;;4.80;;
27275;SDS011;14772;47.398;8.080;2022-10-16T02:53:37;12.40;;;4.50;;
27275;SDS011;14772;47.398;8.080;2022-10-16T02:58:36;27.97;;;5.50;;
27275;SDS011;14772;47.398;8.080;2022-10-16T03:03:34;16.23;;;4.47;;
27275;SDS011;14772;47.398;8.080;2022-10-16T03:08:46;16.67;;;4.23;;
27275;SDS011;14772;47.398;8.080;2022-10-16T03:13:54;15.37;;;4.30;;
27275;SDS011;14772;47.398;8.080;2022-10-16T03:18:59;14.30;;;4.43;;
27275;SDS011;14772;47.398;8.080;2022-10-16T03:24:13;14.63;;;4.53;;
27275;SDS011;14772;47.398;8.080;2022-10-16T03:29:16;18.00;;;4.03;;
27275;SDS011;14772;47.398;8.080;2022-10-16T03:34:16;13.87;;;4.20;;
27275;SDS011;14772;47.398;8.080;2022-10-16T03:39:18;15.57;;;4.07;;
27275;SDS011;14772;47.398;8.080;2022-10-16T03:44:16;15.60;;;4.07;;
27275;SDS011;14772;47.398;8.080;2022-10-16T03:49:14;17.23;;;4.33;;
27275;SDS011;14772;47.398;8.080;2022-10-16T03:54:12;13.33;;;3.83;;
27275;SDS011;14772;47.398;8.080;2022-10-16T03:59:10;16.27;;;4.23;;
27275;SDS011;14772;47.398;8.080;2022-10-16T04:04:09;14.73;;;4.07;;
27275;SDS011;14772;47.398;8.080;2022-10-16T04:09:07;15.37;;;3.80;;
27275;SDS011;14772;47.398;8.080;2022-10-16T04:14:08;13.40;;;4.27;;
27275;SDS011;14772;47.398;8.080;2022-10-16T04:19:21;18.83;;;4.23;;
27275;SDS011;14772;47.398;8.080;2022-10-16T04:24:22;12.00;;;4.07;;
27275;SDS011;14772;47.398;8.080;2022-10-16T04:34:42;14.97;;;4.60;;
27275;SDS011;14772;47.398;8.080;2022-10-16T04:45:16;12.43;;;3.90;;
27275;SDS011;14772;47.398;8.080;2022-10-16T04:50:19;20.83;;;4.60;;
27275;SDS011;14772;47.398;8.080;2022-10-16T04:55:17;14.20;;;4.40;;
27275;SDS011;14772;47.398;8.080;2022-10-16T05:00:17;13.97;;;4.27;;
27275;SDS011;14772;47.398;8.080;2022-10-16T05:05:15;13.37;;;3.90;;
27275;SDS011;14772;47.398;8.080;2022-10-16T05:10:14;13.83;;;4.00;;
27275;SDS011;14772;47.398;8.080;2022-10-16T05:15:15;15.40;;;4.10;;
27275;SDS011;14772;47.398;8.080;2022-10-16T05:20:16;17.93;;;4.13;;
27275;SDS011;14772;47.398;8.080;2022-10-16T05:25:24;15.27;;;4.30;;
27275;SDS011;14772;47.398;8.080;2022-10-16T05:30:29;17.73;;;4.40;;
27275;SDS011;14772;47.398;8.080;2022-10-16T05:35:39;12.93;;;3.97;;
27275;SDS011;14772;47.398;8.080;2022-10-16T05:40:37;13.00;;;3.90;;
27275;SDS011;14772;47.398;8.080;2022-10-16T05:45:35;14.20;;;4.27;;
27275;SDS011;14772;47.398;8.080;2022-10-16T05:50:33;13.63;;;4.00;;
27275;SDS011;14772;47.398;8.080;2022-10-16T05:55:33;13.20;;;4.00;;
27275;SDS011;14772;47.398;8.080;2022-10-16T06:00:31;13.90;;;4.50;;
27275;SDS011;14772;47.398;8.080;2022-10-16T06:05:33;17.10;;;4.33;;
27275;SDS011;14772;47.398;8.080;2022-10-16T06:10:34;15.27;;;4.70;;
27275;SDS011;14772;47.398;8.080;2022-10-16T06:15:33;13.77;;;4.30;;
27275;SDS011;14772;47.398;8.080;2022-10-16T06:20:31;15.90;;;4.80;;
27275;SDS011;14772;47.398;8.080;2022-10-16T06:25:29;12.90;;;4.27;;
27275;SDS011;14772;47.398;8.080;2022-10-16T06:30:26;13.13;;;4.73;;
27275;SDS011;14772;47.398;8.080;2022-10-16T06:35:23;14.43;;;4.77;;
27275;SDS011;14772;47.398;8.080;2022-10-16T06:40:20;15.40;;;5.20;;
27275;SDS011;14772;47.398;8.080;2022-10-16T06:45:18;14.87;;;5.30;;
27275;SDS011;14772;47.398;8.080;2022-10-16T06:50:15;16.73;;;5.50;;
27275;SDS011;14772;47.398;8.080;2022-10-16T06:55:13;19.47;;;6.80;;
27275;SDS011;14772;47.398;8.080;2022-10-16T07:00:11;19.90;;;7.73;;
27275;SDS011;14772;47.398;8.080;2022-10-16T07:05:08;19.47;;;8.10;;
27275;SDS011;14772;47.398;8.080;2022-10-16T07:10:06;18.70;;;6.00;;
27275;SDS011;14772;47.398;8.080;2022-10-16T07:15:05;15.60;;;5.33;;
27275;SDS011;14772;47.398;8.080;2022-10-16T07:20:04;14.23;;;4.77;;
27275;SDS011;14772;47.398;8.080;2022-10-16T07:25:03;14.20;;;4.87;;
27275;SDS011;14772;47.398;8.080;2022-10-16T07:30:01;16.50;;;6.30;;
27275;SDS011;14772;47.398;8.080;2022-10-16T07:34:59;15.83;;;6.03;;
27275;SDS011;14772;47.398;8.080;2022-10-16T07:39:56;15.30;;;5.20;;
27275;SDS011;14772;47.398;8.080;2022-10-16T07:44:53;16.23;;;5.17;;
27275;SDS011;14772;47.398;8.080;2022-10-16T07:49:50;16.07;;;4.87;;
27275;SDS011;14772;47.398;8.080;2022-10-16T07:54:47;13.60;;;4.87;;
27275;SDS011;14772;47.398;8.080;2022-10-16T07:59:45;14.83;;;4.30;;
27275;SDS011;14772;47.398;8.080;2022-10-16T08:04:42;12.73;;;4.50;;
27275;SDS011;14772;47.398;8.080;2022-10-16T08:09:39;12.93;;;4.83;;
27275;SDS011;14772;47.398;8.080;2022-10-16T08:14:36;13.97;;;5.30;;
27275;SDS011;14772;47.398;8.080;2022-10-16T08:19:34;17.83;;;5.23;;
27275;SDS011;14772;47.398;8.080;2022-10-16T08:24:31;20.77;;;5.70;;
27275;SDS011;14772;47.398;8.080;2022-10-16T08:29:28;15.80;;;4.87;;
27275;SDS011;14772;47.398;8.080;2022-10-16T08:34:26;13.60;;;4.60;;
27275;SDS011;14772;47.398;8.080;2022-10-16T08:39:23;12.73;;;5.53;;
27275;SDS011;14772;47.398;8.080;2022-10-16T08:49:57;18.53;;;5.70;;
27275;SDS011;14772;47.398;8.080;2022-10-16T08:54:56;11.50;;;4.33;;
27275;SDS011;14772;47.398;8.080;2022-10-16T08:59:53;14.17;;;4.50;;
27275;SDS011;14772;47.398;8.080;2022-10-16T09:04:56;14.53;;;4.37;;
27275;SDS011;14772;47.398;8.080;2022-10-16T09:10:08;11.67;;;3.77;;
27275;SDS011;14772;47.398;8.080;2022-10-16T09:15:21;12.03;;;3.77;;
27275;SDS011;14772;47.398;8.080;2022-10-16T09:20:44;12.20;;;3.70;;
27275;SDS011;14772;47.398;8.080;2022-10-16T09:25:44;13.10;;;3.57;;
27275;SDS011;14772;47.398;8.080;2022-10-16T09:30:43;14.50;;;4.77;;
27275;SDS011;14772;47.398;8.080;2022-10-16T09:35:43;12.93;;;3.70;;
27275;SDS011;14772;47.398;8.080;2022-10-16T09:40:41;10.23;;;3.67;;
27275;SDS011;14772;47.398;8.080;2022-10-16T09:45:39;13.03;;;3.50;;
27275;SDS011;14772;47.398;8.080;2022-10-16T09:50:36;11.17;;;3.97;;
27275;SDS011;14772;47.398;8.080;2022-10-16T09:55:48;10.53;;;3.17;;
27275;SDS011;14772;47.398;8.080;2022-10-16T10:00:49;9.73;;;3.33;;
27275;SDS011;14772;47.398;8.080;2022-10-16T10:05:49;12.67;;;3.43;;
27275;SDS011;14772;47.398;8.080;2022-10-16T10:10:47;11.53;;;3.70;;
27275;SDS011;14772;47.398;8.080;2022-10-16T10:15:45;9.37;;;3.17;;
27275;SDS011;14772;47.398;8.080;2022-10-16T10:20:42;14.63;;;4.67;;
27275;SDS011;14772;47.398;8.080;2022-10-16T10:25:42;12.37;;;4.73;;
27275;SDS011;14772;47.398;8.080;2022-10-16T10:30:46;13.77;;;3.93;;
27275;SDS011;14772;47.398;8.080;2022-10-16T10:36:07;11.93;;;3.60;;
27275;SDS011;14772;47.398;8.080;2022-10-16T10:41:27;12.90;;;3.40;;
27275;SDS011;14772;47.398;8.080;2022-10-16T10:46:57;12.13;;;3.60;;
27275;SDS011;14772;47.398;8.080;2022-10-16T10:52:00;11.40;;;3.07;;
27275;SDS011;14772;47.398;8.080;2022-10-16T10:57:09;12.20;;;2.90;;
27275;SDS011;14772;47.398;8.080;2022-10-16T11:02:12;9.80;;;3.03;;
27275;SDS011;14772;47.398;8.080;2022-10-16T11:07:13;10.37;;;2.83;;
27275;SDS011;14772;47.398;8.080;2022-10-16T11:12:14;9.30;;;2.80;;
27275;SDS011;14772;47.398;8.080;2022-10-16T11:17:15;10.43;;;2.80;;
27275;SDS011;14772;47.398;8.080;2022-10-16T11:22:16;10.77;;;3.00;;
27275;SDS011;14772;47.398;8.080;2022-10-16T11:27:17;7.83;;;2.80;;
27275;SDS011;14772;47.398;8.080;2022-10-16T11:32:20;10.57;;;3.10;;
27275;SDS011;14772;47.398;8.080;2022-10-16T11:37:21;7.10;;;2.70;;
27275;SDS011;14772;47.398;8.080;2022-10-16T11:42:22;6.80;;;2.40;;
27275;SDS011;14772;47.398;8.080;2022-10-16T11:47:26;9.77;;;2.70;;
27275;SDS011;14772;47.398;8.080;2022-10-16T11:52:28;8.33;;;2.83;;
27275;SDS011;14772;47.398;8.080;2022-10-16T11:57:27;10.70;;;2.60;;
27275;SDS011;14772;47.398;8.080;2022-10-16T12:02:30;7.30;;;2.60;;
27275;SDS011;14772;47.398;8.080;2022-10-16T12:07:35;8.20;;;2.50;;
27275;SDS011;14772;47.398;8.080;2022-10-16T12:12:37;9.20;;;2.50;;
27275;SDS011;14772;47.398;8.080;2022-10-16T12:17:36;10.50;;;2.20;;
27275;SDS011;14772;47.398;8.080;2022-10-16T12:22:34;10.30;;;2.40;;
27275;SDS011;14772;47.398;8.080;2022-10-16T12:27:31;15.03;;;2.50;;
27275;SDS011;14772;47.398;8.080;2022-10-16T12:32:30;15.20;;;3.43;;
27275;SDS011;14772;47.398;8.080;2022-10-16T12:37:31;11.00;;;2.60;;
27275;SDS011;14772;47.398;8.080;2022-10-16T12:42:33;9.27;;;2.40;;
27275;SDS011;14772;47.398;8.080;2022-10-16T12:47:38;6.33;;;2.17;;
27275;SDS011;14772;47.398;8.080;2022-10-16T12:52:43;11.80;;;2.27;;
27275;SDS011;14772;47.398;8.080;2022-10-16T12:57:43;9.13;;;2.60;;
27275;SDS011;14772;47.398;8.080;2022-10-16T13:02:55;9.67;;;2.23;;
27275;SDS011;14772;47.398;8.080;2022-10-16T13:08:01;6.30;;;2.30;;
27275;SDS011;14772;47.398;8.080;2022-10-16T13:18:24;6.90;;;2.37;;
27275;SDS011;14772;47.398;8.080;2022-10-16T13:23:25;6.40;;;2.13;;
27275;SDS011;14772;47.398;8.080;2022-10-16T13:28:28;8.40;;;2.40;;
27275;SDS011;14772;47.398;8.080;2022-10-16T13:33:30;7.87;;;2.23;;
27275;SDS011;14772;47.398;8.080;2022-10-16T13:38:30;7.07;;;2.40;;
27275;SDS011;14772;47.398;8.080;2022-10-16T13:43:29;6.33;;;2.30;;
27275;SDS011;14772;47.398;8.080;2022-10-16T13:48:30;7.67;;;2.20;;
27275;SDS011;14772;47.398;8.080;2022-10-16T13:53:30;10.43;;;2.50;;
27275;SDS011;14772;47.398;8.080;2022-10-16T13:58:28;8.23;;;2.33;;
27275;SDS011;14772;47.398;8.080;2022-10-16T14:03:26;8.63;;;2.47;;
27275;SDS011;14772;47.398;8.080;2022-10-16T14:08:24;6.87;;;2.20;;
27275;SDS011;14772;47.398;8.080;2022-10-16T14:13:26;9.97;;;2.73;;
27275;SDS011;14772;47.398;8.080;2022-10-16T14:18:26;7.10;;;2.30;;
27275;SDS011;14772;47.398;8.080;2022-10-16T14:23:28;9.47;;;2.43;;
27275;SDS011;14772;47.398;8.080;2022-10-16T14:28:26;7.97;;;2.47;;
27275;SDS011;14772;47.398;8.080;2022-10-16T14:33:24;8.20;;;2.30;;
27275;SDS011;14772;47.398;8.080;2022-10-16T14:38:24;7.60;;;2.40;;
27275;SDS011;14772;47.398;8.080;2022-10-16T14:43:22;7.40;;;2.40;;
27275;SDS011;14772;47.398;8.080;2022-10-16T14:48:22;9.23;;;2.70;;
27275;SDS011;14772;47.398;8.080;2022-10-16T14:53:20;8.47;;;2.40;;
27275;SDS011;14772;47.398;8.080;2022-10-16T14:58:17;7.37;;;2.50;;
27275;SDS011;14772;47.398;8.080;2022-10-16T15:03:17;8.73;;;2.33;;
27275;SDS011;14772;47.398;8.080;2022-10-16T15:08:14;7.93;;;2.20;;
27275;SDS011;14772;47.398;8.080;2022-10-16T15:13:12;9.77;;;2.70;;
27275;SDS011;14772;47.398;8.080;2022-10-16T15:18:10;7.17;;;2.30;;
27275;SDS011;14772;47.398;8.080;2022-10-16T15:23:10;9.37;;;2.60;;
27275;SDS011;14772;47.398;8.080;2022-10-16T15:28:10;7.33;;;2.47;;
27275;SDS011;14772;47.398;8.080;2022-10-16T15:33:11;9.17;;;2.40;;
27275;SDS011;14772;47.398;8.080;2022-10-16T15:38:11;9.63;;;2.80;;
27275;SDS011;14772;47.398;8.080;2022-10-16T15:43:09;7.90;;;2.70;;
27275;SDS011;14772;47.398;8.080;2022-10-16T15:48:08;9.60;;;3.00;;
27275;SDS011;14772;47.398;8.080;2022-10-16T15:53:22;9.97;;;3.10;;
27275;SDS011;14772;47.398;8.080;2022-10-16T15:58:19;12.27;;;4.73;;
27275;SDS011;14772;47.398;8.080;2022-10-16T16:03:17;10.57;;;3.43;;
27275;SDS011;14772;47.398;8.080;2022-10-16T16:08:14;8.13;;;2.70;;
27275;SDS011;14772;47.398;8.080;2022-10-16T16:13:11;10.67;;;3.30;;
27275;SDS011;14772;47.398;8.080;2022-10-16T16:18:08;8.90;;;3.03;;
27275;SDS011;14772;47.398;8.080;2022-10-16T16:23:05;9.33;;;3.00;;
27275;SDS011;14772;47.398;8.080;2022-10-16T16:28:03;12.37;;;3.30;;
27275;SDS011;14772;47.398;8.080;2022-10-16T16:33:00;12.40;;;4.50;;
27275;SDS011;14772;47.398;8.080;2022-10-16T16:37:57;22.30;;;5.80;;
27275;SDS011;14772;47.398;8.080;2022-10-16T16:42:54;20.07;;;4.83;;
27275;SDS011;14772;47.398;8.080;2022-10-16T16:47:52;12.50;;;5.43;;
27275;SDS011;14772;47.398;8.080;2022-10-16T16:52:49;18.33;;;5.67;;
27275;SDS011;14772;47.398;8.080;2022-10-16T16:57:48;16.30;;;8.23;;
27275;SDS011;14772;47.398;8.080;2022-10-16T17:02:48;14.90;;;7.13;;
27275;SDS011;14772;47.398;8.080;2022-10-16T17:07:45;16.43;;;7.00;;
27275;SDS011;14772;47.398;8.080;2022-10-16T17:12:42;16.17;;;5.42;;
27275;SDS011;14772;47.398;8.080;2022-10-16T17:17:39;14.60;;;5.03;;
27275;SDS011;14772;47.398;8.080;2022-10-16T17:22:37;14.50;;;4.97;;
27275;SDS011;14772;47.398;8.080;2022-10-16T17:27:34;14.83;;;4.50;;
27275;SDS011;14772;47.398;8.080;2022-10-16T17:32:34;17.70;;;5.03;;
27275;SDS011;14772;47.398;8.080;2022-10-16T17:37:31;15.80;;;5.00;;
27275;SDS011;14772;47.398;8.080;2022-10-16T17:42:28;19.30;;;6.57;;
27275;SDS011;14772;47.398;8.080;2022-10-16T17:47:26;17.43;;;6.17;;
27275;SDS011;14772;47.398;8.080;2022-10-16T17:52:23;19.17;;;6.00;;
27275;SDS011;14772;47.398;8.080;2022-10-16T17:57:20;14.87;;;5.40;;
27275;SDS011;14772;47.398;8.080;2022-10-16T18:02:18;18.97;;;5.23;;
27275;SDS011;14772;47.398;8.080;2022-10-16T18:07:16;16.33;;;5.10;;
27275;SDS011;14772;47.398;8.080;2022-10-16T18:12:13;19.57;;;5.13;;
27275;SDS011;14772;47.398;8.080;2022-10-16T18:17:11;17.40;;;4.53;;
27275;SDS011;14772;47.398;8.080;2022-10-16T18:22:08;18.70;;;6.13;;
27275;SDS011;14772;47.398;8.080;2022-10-16T18:27:05;17.70;;;5.70;;
27275;SDS011;14772;47.398;8.080;2022-10-16T18:32:02;16.90;;;5.30;;
27275;SDS011;14772;47.398;8.080;2022-10-16T18:37:00;18.17;;;5.47;;
27275;SDS011;14772;47.398;8.080;2022-10-16T18:41:57;16.17;;;4.73;;
27275;SDS011;14772;47.398;8.080;2022-10-16T18:46:55;18.07;;;4.90;;
27275;SDS011;14772;47.398;8.080;2022-10-16T18:51:52;15.53;;;5.37;;
27275;SDS011;14772;47.398;8.080;2022-10-16T18:56:50;16.13;;;5.07;;
27275;SDS011;14772;47.398;8.080;2022-10-16T19:01:48;15.57;;;5.20;;
27275;SDS011;14772;47.398;8.080;2022-10-16T19:06:46;18.47;;;5.50;;
27275;SDS011;14772;47.398;8.080;2022-10-16T19:11:44;18.97;;;5.43;;
27275;SDS011;14772;47.398;8.080;2022-10-16T19:16:41;18.80;;;4.80;;
27275;SDS011;14772;47.398;8.080;2022-10-16T19:21:39;20.40;;;5.27;;
27275;SDS011;14772;47.398;8.080;2022-10-16T19:26:37;17.73;;;5.20;;
27275;SDS011;14772;47.398;8.080;2022-10-16T19:31:34;15.23;;;5.00;;
27275;SDS011;14772;47.398;8.080;2022-10-16T19:36:33;16.93;;;4.70;;
27275;SDS011;14772;47.398;8.080;2022-10-16T19:41:31;16.10;;;4.73;;
27275;SDS011;14772;47.398;8.080;2022-10-16T19:46:31;15.80;;;4.33;;
27275;SDS011;14772;47.398;8.080;2022-10-16T19:51:29;18.00;;;5.00;;
27275;SDS011;14772;47.398;8.080;2022-10-16T19:56:27;19.77;;;4.80;;
27275;SDS011;14772;47.398;8.080;2022-10-16T20:01:26;17.13;;;5.53;;
27275;SDS011;14772;47.398;8.080;2022-10-16T20:06:25;19.37;;;4.97;;
27275;SDS011;14772;47.398;8.080;2022-10-16T20:11:23;17.03;;;5.40;;
27275;SDS011;14772;47.398;8.080;2022-10-16T20:16:22;18.60;;;7.13;;
27275;SDS011;14772;47.398;8.080;2022-10-16T20:21:21;19.33;;;6.53;;
27275;SDS011;14772;47.398;8.080;2022-10-16T20:26:20;15.97;;;4.77;;
27275;SDS011;14772;47.398;8.080;2022-10-16T20:31:19;15.20;;;5.10;;
27275;SDS011;14772;47.398;8.080;2022-10-16T20:36:18;16.33;;;5.23;;
27275;SDS011;14772;47.398;8.080;2022-10-16T20:41:17;19.47;;;5.63;;
27275;SDS011;14772;47.398;8.080;2022-10-16T20:46:15;21.63;;;5.40;;
27275;SDS011;14772;47.398;8.080;2022-10-16T20:51:14;18.30;;;5.40;;
27275;SDS011;14772;47.398;8.080;2022-10-16T20:56:13;17.43;;;4.90;;
27275;SDS011;14772;47.398;8.080;2022-10-16T21:01:12;15.27;;;4.53;;
27275;SDS011;14772;47.398;8.080;2022-10-16T21:06:11;17.63;;;4.63;;
27275;SDS011;14772;47.398;8.080;2022-10-16T21:11:09;23.37;;;5.03;;
27275;SDS011;14772;47.398;8.080;2022-10-16T21:16:08;16.80;;;4.53;;
27275;SDS011;14772;47.398;8.080;2022-10-16T21:21:06;16.83;;;4.73;;
27275;SDS011;14772;47.398;8.080;2022-10-16T21:26:04;18.13;;;4.93;;
27275;SDS011;14772;47.398;8.080;2022-10-16T21:31:09;13.20;;;4.70;;
27275;SDS011;14772;47.398;8.080;2022-10-16T21:36:12;18.60;;;4.87;;
27275;SDS011;14772;47.398;8.080;2022-10-16T21:41:16;13.83;;;4.27;;
27275;SDS011;14772;47.398;8.080;2022-10-16T21:46:15;17.00;;;4.10;;
27275;SDS011;14772;47.398;8.080;2022-10-16T21:51:14;16.07;;;4.70;;
27275;SDS011;14772;47.398;8.080;2022-10-16T21:56:12;19.93;;;4.37;;
27275;SDS011;14772;47.398;8.080;2022-10-16T22:01:11;14.53;;;4.17;;
27275;SDS011;14772;47.398;8.080;2022-10-16T22:06:10;18.50;;;4.70;;
27275;SDS011;14772;47.398;8.080;2022-10-16T22:11:08;15.67;;;4.40;;
27275;SDS011;14772;47.398;8.080;2022-10-16T22:16:07;18.17;;;4.27;;
27275;SDS011;14772;47.398;8.080;2022-10-16T22:21:06;18.97;;;6.33;;
27275;SDS011;14772;47.398;8.080;2022-10-16T22:26:05;21.53;;;8.10;;
27275;SDS011;14772;47.398;8.080;2022-10-16T22:31:04;23.20;;;7.73;;
27275;SDS011;14772;47.398;8.080;2022-10-16T22:36:04;15.10;;;5.93;;
27275;SDS011;14772;47.398;8.080;2022-10-16T22:41:03;23.33;;;6.87;;
27275;SDS011;14772;47.398;8.080;2022-10-16T22:46:02;16.27;;;4.83;;
27275;SDS011;14772;47.398;8.080;2022-10-16T22:51:00;13.30;;;4.30;;
27275;SDS011;14772;47.398;8.080;2022-10-16T22:55:57;13.67;;;4.30;;
27275;SDS011;14772;47.398;8.080;2022-10-16T23:00:54;21.27;;;3.73;;
27275;SDS011;14772;47.398;8.080;2022-10-16T23:05:51;11.90;;;3.87;;
27275;SDS011;14772;47.398;8.080;2022-10-16T23:10:49;14.10;;;4.33;;
27275;SDS011;14772;47.398;8.080;2022-10-16T23:15:46;15.73;;;4.23;;
27275;SDS011;14772;47.398;8.080;2022-10-16T23:20:43;14.07;;;4.23;;
27275;SDS011;14772;47.398;8.080;2022-10-16T23:25:44;20.43;;;4.20;;
27275;SDS011;14772;47.398;8.080;2022-10-16T23:30:42;17.63;;;4.30;;
27275;SDS011;14772;47.398;8.080;2022-10-16T23:35:39;16.10;;;3.97;;
27275;SDS011;14772;47.398;8.080;2022-10-16T23:40:36;15.43;;;4.27;;
27275;SDS011;14772;47.398;8.080;2022-10-16T23:45:34;16.57;;;3.60;;
27275;SDS011;14772;47.398;8.080;2022-10-16T23:50:32;17.00;;;4.00;;
27275;SDS011;14772;47.398;8.080;2022-10-16T23:55:29;20.80;;;4.13;;
